Time;durP1;ratioP1;P1;durP2;ratioP2;P2;SDS_P1;SDS_P2;PMS_P1;PMS_P2;Temp;Humidity;BMP_temperature;BMP_pressure;BME280_temperature;BME280_humidity;BME280_pressure;Samples;Min_cycle;Max_cycle;Signal;HPM_P1;HPM_P2
2022/01/18 00:01:13;;;;;;;;;28.20;22.40;;;;;6.29;70.85;103205.56;5036828;28;45411;-50
2022/01/18 00:03:38;;;;;;;;;22.75;22.50;;;;;6.12;70.73;103198.72;5002621;28;45823;-54
2022/01/18 00:06:04;;;;;;;;;28.00;22.50;;;;;6.19;71.15;103224.50;5019123;28;45809;-50
2022/01/18 00:08:29;;;;;;;;;19.75;19.50;;;;;6.21;70.50;103208.88;5001696;28;45579;-53
2022/01/18 00:10:55;;;;;;;;;24.50;21.75;;;;;6.20;70.78;103207.16;5019183;28;45452;-53
2022/01/18 00:13:36;;;;;;;;;24.25;21.00;;;;;6.16;71.43;103201.06;5018666;28;45348;-54
2022/01/18 00:18:33;;;;;;;;;23.60;22.00;;;;;6.22;70.38;103222.41;5019252;28;46324;-50
2022/01/18 00:23:24;;;;;;;;;22.25;19.25;;;;;6.18;70.93;103209.09;4997518;28;45986;-51
2022/01/18 00:25:54;;;;;;;;;19.75;16.50;;;;;6.19;70.86;103208.16;4998257;28;45490;-55
2022/01/18 00:28:20;;;;;;;;;21.20;18.20;;;;;6.02;70.68;103176.75;4992273;28;46434;-52
2022/01/18 00:33:20;;;;;;;;;24.50;20.25;;;;;6.10;71.01;103198.84;5017283;28;45641;-53
2022/01/18 00:35:47;;;;;;;;;30.00;21.60;;;;;6.17;71.08;103202.81;5000833;28;45458;-53
2022/01/18 00:38:29;;;;;;;;;12.80;8.00;;;;;6.18;71.67;103185.44;5017499;28;45743;-51
2022/01/18 00:40:55;;;;;;;;;25.80;24.40;;;;;6.17;71.54;103197.34;5036624;28;45267;-54
2022/01/18 00:43:20;;;;;;;;;27.25;23.50;;;;;6.05;71.18;103182.84;5018448;28;45447;-53
2022/01/18 00:45:46;;;;;;;;;22.50;18.50;;;;;6.15;71.16;103184.81;5035899;28;45502;-50
2022/01/18 00:48:12;;;;;;;;;26.00;25.00;;;;;6.16;70.79;103192.00;5018508;28;46523;-54
2022/01/18 00:50:37;;;;;;;;;23.50;22.25;;;;;6.15;71.45;103179.38;5035967;28;45592;-54
2022/01/18 00:53:08;;;;;;;;;29.50;24.75;;;;;6.12;71.55;103188.66;5018341;28;45486;-53
2022/01/18 00:55:36;;;;;;;;;22.60;19.80;;;;;5.92;71.50;103152.06;5019361;28;45187;-55
2022/01/18 00:58:02;;;;;;;;;29.40;25.20;;;;;6.07;70.80;103191.75;5001783;28;47364;-52
2022/01/18 01:00:27;;;;;;;;;29.75;25.00;;;;;6.14;71.53;103192.13;5036093;28;45424;-54
2022/01/18 01:02:53;;;;;;;;;22.25;22.00;;;;;6.13;71.22;103186.81;5018102;28;45387;-52
2022/01/18 01:05:18;;;;;;;;;25.50;24.25;;;;;5.90;71.03;103156.75;5036487;28;45489;-53
2022/01/18 01:07:44;;;;;;;;;23.25;22.25;;;;;5.89;70.95;103157.75;5035619;28;46816;-51
2022/01/18 01:10:09;;;;;;;;;26.75;23.50;;;;;5.88;71.33;103145.09;5001550;28;45367;-54
2022/01/18 01:12:35;;;;;;;;;25.50;20.75;;;;;6.02;71.11;103179.47;5001605;28;45422;-51
2022/01/18 01:15:08;;;;;;;;;32.25;25.00;;;;;5.90;71.84;103170.38;5018126;28;45396;-52
2022/01/18 01:37:12;;;;;;;;;31.40;27.80;;;;;5.87;71.58;103187.84;5018778;28;45314;-53
2022/01/18 01:44:45;;;;;;;;;49.00;42.60;;;;;5.73;72.67;103185.31;5035439;28;45378;-52
2022/01/18 01:47:12;;;;;;;;;50.50;39.75;;;;;5.62;72.66;103184.31;5018782;28;45466;-51
2022/01/18 01:49:38;;;;;;;;;45.80;38.80;;;;;5.55;72.31;103153.94;5001154;28;46603;-52
2022/01/18 01:52:06;;;;;;;;;43.60;40.00;;;;;5.54;71.53;103160.38;5017353;28;45239;-52
2022/01/18 01:54:31;;;;;;;;;32.60;31.20;;;;;5.63;72.55;103185.19;5035399;28;45331;-54
2022/01/18 01:56:57;;;;;;;;;48.00;37.00;;;;;5.59;72.76;103178.25;5017451;28;45251;-55
2022/01/18 01:59:22;;;;;;;;;39.75;34.50;;;;;5.38;72.63;103174.31;5034978;28;46071;-53
2022/01/18 02:01:49;;;;;;;;;47.00;39.25;;;;;5.54;73.19;103205.81;5035497;28;45428;-52
2022/01/18 02:04:14;;;;;;;;;44.60;39.80;;;;;5.29;72.64;103167.72;5035176;28;45413;-53
2022/01/18 02:06:40;;;;;;;;;43.25;36.50;;;;;5.46;72.98;103200.97;5017658;28;45460;-52
2022/01/18 02:09:05;;;;;;;;;41.00;38.25;;;;;5.25;73.12;103159.91;5035017;28;45503;-50
2022/01/18 02:11:31;;;;;;;;;41.00;33.50;;;;;5.44;72.73;103200.22;5000920;28;45528;-51
2022/01/18 02:13:57;;;;;;;;;41.75;28.00;;;;;5.41;73.41;103195.00;5017027;28;45392;-49
2022/01/18 02:21:50;;;;;;;;;37.20;32.00;;;;;5.42;73.26;103199.47;5035186;28;45393;-52
2022/01/18 02:24:17;;;;;;;;;31.00;28.50;;;;;5.26;73.78;103189.75;5034652;28;45353;-52
2022/01/18 02:26:42;;;;;;;;;33.20;27.20;;;;;5.28;72.82;103193.22;5017426;28;45518;-51
2022/01/18 02:29:09;;;;;;;;;20.00;19.00;;;;;5.27;73.47;103193.31;5034767;28;45456;-48
2022/01/18 02:31:35;;;;;;;;;37.20;28.60;;;;;5.09;73.20;103171.09;5017265;28;45333;-55
2022/01/18 02:34:04;;;;;;;;;31.80;26.60;;;;;5.14;73.80;103177.91;5020868;28;45362;-52
2022/01/18 02:36:30;;;;;;;;;31.60;28.80;;;;;5.18;72.89;103196.75;5004648;28;45584;-49
2022/01/18 02:38:56;;;;;;;;;23.80;13.40;;;;;5.20;72.64;103206.56;5020307;28;46686;-50
2022/01/18 02:41:28;;;;;;;;;37.25;31.75;;;;;4.97;72.65;103151.97;5038272;28;45364;-53
2022/01/18 02:44:09;;;;;;;;;38.80;31.80;;;;;5.07;72.73;103183.97;5021012;28;45524;-54
2022/01/18 02:46:34;;;;;;;;;33.80;28.00;;;;;4.93;73.34;103164.09;5022377;28;45438;-53
2022/01/18 02:49:00;;;;;;;;;31.25;28.75;;;;;5.11;73.49;103180.88;5020317;28;45976;-50
2022/01/18 02:51:26;;;;;;;;;34.00;29.80;;;;;4.96;73.55;103155.69;5020290;28;45347;-50
2022/01/18 02:53:57;;;;;;;;;35.00;29.50;;;;;5.13;73.30;103183.50;5038210;28;45417;-56
2022/01/18 02:56:24;;;;;;;;;32.60;28.20;;;;;5.19;73.02;103184.88;5021377;28;45276;-53
2022/01/18 02:58:50;;;;;;;;;24.80;20.40;;;;;5.02;72.87;103149.78;5020317;28;47135;-53
2022/01/18 03:03:59;;;;;;;;;36.60;30.60;;;;;5.07;73.86;103189.41;5037934;28;45343;-51
2022/01/18 03:06:24;;;;;;;;;35.00;27.25;;;;;5.12;72.80;103171.72;4994252;28;45399;-53
2022/01/18 03:08:50;;;;;;;;;38.00;32.25;;;;;5.11;73.62;103180.88;5015215;28;46005;-50
2022/01/18 03:11:15;;;;;;;;;35.00;28.75;;;;;5.04;73.19;103173.28;5012354;28;45377;-53
2022/01/18 03:13:41;;;;;;;;;30.00;26.00;;;;;4.80;73.46;103106.13;5015545;28;45453;-56
2022/01/18 03:16:06;;;;;;;;;31.50;28.50;;;;;5.05;71.91;103148.69;5008779;28;45860;-52
2022/01/18 03:18:32;;;;;;;;;38.75;31.50;;;;;4.79;73.52;103137.91;5017687;28;46609;-52
2022/01/18 03:20:57;;;;;;;;;33.75;31.75;;;;;4.97;73.08;103140.22;5017337;28;45313;-51
2022/01/18 03:23:24;;;;;;;;;32.75;29.00;;;;;5.00;73.24;103143.59;5017785;28;45417;-50
2022/01/18 03:25:56;;;;;;;;;31.20;27.00;;;;;5.05;72.91;103151.41;5016587;28;45284;-50
2022/01/18 03:28:21;;;;;;;;;34.20;24.80;;;;;4.99;73.16;103116.47;5017873;28;45827;-53
2022/01/18 03:30:53;;;;;;;;;38.25;34.50;;;;;4.83;73.22;103097.72;4999620;28;45874;-54
2022/01/18 03:33:19;;;;;;;;;37.60;31.40;;;;;4.96;73.17;103146.66;5001404;28;45506;-51
2022/01/18 03:35:45;;;;;;;;;29.60;25.40;;;;;4.82;72.85;103106.88;5016546;28;45706;-55
2022/01/18 03:38:11;;;;;;;;;35.60;30.40;;;;;5.07;72.74;103145.84;4999993;28;45780;-51
2022/01/18 03:40:37;;;;;;;;;33.00;27.50;;;;;4.90;72.56;103122.63;5002727;28;45531;-49
2022/01/18 03:43:05;;;;;;;;;28.25;23.75;;;;;4.92;73.86;103121.53;5036459;28;45422;-51
2022/01/18 03:45:40;;;;;;;;;34.00;29.60;;;;;4.98;72.83;103136.53;5020432;28;46027;-54
2022/01/18 03:48:09;;;;;;;;;33.80;24.40;;;;;5.09;73.70;103154.75;5020787;28;46339;-50
2022/01/18 03:50:34;;;;;;;;;36.20;25.80;;;;;5.10;72.89;103149.19;5019735;28;45418;-54
2022/01/18 03:53:00;;;;;;;;;27.00;24.25;;;;;4.93;73.45;103112.38;5019657;28;45277;-52
2022/01/18 03:55:25;;;;;;;;;27.25;23.75;;;;;5.13;73.13;103153.56;5037700;28;45389;-53
2022/01/18 03:57:51;;;;;;;;;30.00;27.50;;;;;4.92;72.46;103124.25;5037194;28;45808;-55
2022/01/18 04:00:19;;;;;;;;;24.75;23.00;;;;;5.03;72.73;103139.78;5037159;28;45338;-51
2022/01/18 04:02:44;;;;;;;;;41.40;31.00;;;;;4.93;73.53;103142.31;5037608;28;45837;-54
2022/01/18 04:05:10;;;;;;;;;35.50;27.50;;;;;4.96;73.24;103152.97;5019540;28;45345;-50
2022/01/18 04:07:36;;;;;;;;;31.50;28.75;;;;;4.74;73.01;103100.16;5037031;28;45361;-51
2022/01/18 04:10:02;;;;;;;;;28.75;26.25;;;;;4.95;73.25;103136.72;5018905;28;45431;-51
2022/01/18 04:12:27;;;;;;;;;33.20;24.20;;;;;4.73;73.13;103114.75;5037540;28;45429;-49
2022/01/18 04:14:54;;;;;;;;;31.00;28.00;;;;;4.92;73.84;103143.31;5019653;28;45891;-54
2022/01/18 04:27:39;;;;;;;;;37.20;28.60;;;;;4.91;74.16;103140.69;5021322;28;45764;-55
2022/01/18 04:30:05;;;;;;;;;20.60;19.20;;;;;4.67;74.05;103104.31;5036407;28;45338;-52
2022/01/18 04:32:31;;;;;;;;;34.60;28.40;;;;;4.87;73.69;103140.91;5002399;28;45307;-55
2022/01/18 04:34:57;;;;;;;;;34.00;25.50;;;;;4.65;74.03;103109.03;5002418;28;45300;-49
2022/01/18 04:37:22;;;;;;;;;33.80;25.00;;;;;4.83;73.67;103153.03;5036330;28;45470;-49
2022/01/18 04:39:48;;;;;;;;;36.00;30.00;;;;;4.81;73.66;103137.78;5018840;28;45442;-51
2022/01/18 04:50:26;;;;;;;;;38.00;29.80;;;;;4.61;74.20;103089.31;5036219;28;45326;-51
2022/01/18 04:52:52;;;;;;;;;31.00;26.75;;;;;4.83;74.33;103127.66;5018162;28;45490;-54
2022/01/18 04:55:18;;;;;;;;;31.75;28.00;;;;;4.84;74.37;103121.22;5036336;28;45294;-55
2022/01/18 04:57:53;;;;;;;;;33.20;25.40;;;;;4.80;73.59;103117.00;5018552;28;47243;-54
2022/01/18 05:00:23;;;;;;;;;37.20;28.60;;;;;4.74;74.38;103129.19;5035924;28;45751;-51
2022/01/18 05:02:48;;;;;;;;;36.80;28.60;;;;;4.76;74.50;103124.53;4985667;28;45405;-54
2022/01/18 05:05:25;;;;;;;;;39.50;29.50;;;;;4.58;74.12;103096.81;5001858;28;45371;-51
2022/01/18 05:07:52;;;;;;;;;34.20;25.80;;;;;4.77;74.72;103139.00;5019261;28;46194;-50
2022/01/18 05:10:23;;;;;;;;;31.20;24.00;;;;;4.78;74.53;103132.56;5035927;28;45500;-50
2022/01/18 05:12:51;;;;;;;;;39.00;29.60;;;;;4.74;75.46;103123.75;5018560;28;45386;-55
2022/01/18 05:21:06;;;;;;;;;34.40;27.40;;;;;4.78;75.07;103133.44;5035520;28;45509;-53
2022/01/18 05:23:11;;;;;;;;;43.80;35.20;;;;;4.63;74.62;103113.69;5033235;28;45440;-51
2022/01/18 05:25:37;;;;;;;;;44.00;33.50;;;;;4.72;75.18;103125.75;5035552;28;45267;-54
2022/01/18 05:28:04;;;;;;;;;33.25;25.50;;;;;4.79;74.60;103137.03;5036005;28;46511;-53
2022/01/18 05:30:29;;;;;;;;;36.60;30.40;;;;;4.72;75.45;103129.34;5017692;28;45464;-52
2022/01/18 05:32:55;;;;;;;;;35.25;29.00;;;;;4.75;75.42;103129.09;5001473;28;45360;-51
2022/01/18 05:35:21;;;;;;;;;45.00;35.00;;;;;4.58;74.96;103099.53;5018256;28;45610;-51
2022/01/18 05:37:47;;;;;;;;;36.75;32.00;;;;;4.79;75.58;103123.44;5035467;28;46561;-54
2022/01/18 05:40:13;;;;;;;;;31.80;25.00;;;;;4.81;74.61;103121.47;5000563;28;45478;-55
2022/01/18 05:42:38;;;;;;;;;39.75;31.00;;;;;4.81;74.76;103118.75;5035528;28;45417;-50
2022/01/18 05:45:06;;;;;;;;;48.50;36.25;;;;;4.80;74.72;103111.56;5036037;28;45325;-54
2022/01/18 05:47:32;;;;;;;;;37.20;26.60;;;;;4.67;75.31;103081.66;5034889;28;46738;-55
2022/01/18 05:49:57;;;;;;;;;47.50;36.50;;;;;4.82;74.80;103110.47;5001211;28;45276;-54
2022/01/18 05:52:23;;;;;;;;;41.00;25.25;;;;;4.86;75.75;103113.81;5035449;28;45777;-54
2022/01/18 05:54:48;;;;;;;;;42.75;31.75;;;;;4.83;74.77;103104.03;5017315;28;45461;-51
2022/01/18 05:57:14;;;;;;;;;53.75;36.50;;;;;4.89;74.87;103121.75;5000792;28;46898;-50
2022/01/18 05:59:44;;;;;;;;;38.25;30.75;;;;;4.83;74.75;103105.88;5017335;28;45438;-51
2022/01/18 06:02:32;;;;;;;;;35.00;29.40;;;;;4.77;76.00;103122.66;5016989;28;45421;-51
2022/01/18 06:07:42;;;;;;;;;33.20;27.00;;;;;4.85;75.62;103122.94;5021927;28;45874;-50
2022/01/18 06:10:08;;;;;;;;;35.00;25.00;;;;;4.74;75.19;103099.28;5038945;28;45273;-53
2022/01/18 06:12:33;;;;;;;;;30.50;25.25;;;;;4.84;75.01;103104.88;5004103;28;45296;-49
2022/01/18 06:14:59;;;;;;;;;32.50;28.00;;;;;4.81;75.53;103118.75;5038924;28;45336;-52
2022/01/18 06:17:25;;;;;;;;;31.00;25.50;;;;;4.81;75.52;103126.91;5038608;28;45912;-52
2022/01/18 06:19:50;;;;;;;;;28.00;21.50;;;;;4.79;74.73;103112.56;5020349;28;45551;-51
2022/01/18 06:22:16;;;;;;;;;36.00;27.50;;;;;4.56;75.21;103091.53;5003978;28;45387;-50
2022/01/18 06:24:41;;;;;;;;;47.00;31.00;;;;;4.81;75.33;103143.22;5039046;28;45385;-49
2022/01/18 06:27:07;;;;;;;;;40.25;28.50;;;;;4.84;74.69;103138.44;5038569;28;46834;-52
2022/01/18 06:29:33;;;;;;;;;36.00;26.00;;;;;4.67;74.44;103106.16;5038150;28;45508;-55
2022/01/18 06:31:58;;;;;;;;;31.50;25.75;;;;;4.69;75.65;103148.59;5020833;28;45339;-52
2022/01/18 06:34:23;;;;;;;;;33.50;26.75;;;;;4.43;75.83;103104.28;5004784;28;45455;-54
2022/01/18 06:36:49;;;;;;;;;33.00;27.00;;;;;4.40;75.97;103099.94;5038419;28;46399;-55
2022/01/18 06:39:16;;;;;;;;;26.25;25.25;;;;;4.61;75.62;103130.09;5038437;28;45341;-52
2022/01/18 06:41:44;;;;;;;;;25.80;22.40;;;;;4.64;75.89;103139.91;5038783;28;45215;-52
2022/01/18 06:44:09;;;;;;;;;24.00;20.40;;;;;4.67;75.91;103136.09;5020595;28;45484;-51
2022/01/18 06:46:34;;;;;;;;;24.00;22.50;;;;;4.35;75.58;103085.81;5038503;28;46430;-53
2022/01/18 06:49:00;;;;;;;;;28.50;22.50;;;;;4.70;75.31;103152.19;5038201;28;45393;-51
2022/01/18 06:51:25;;;;;;;;;31.75;23.00;;;;;4.72;75.52;103147.50;5020695;28;45303;-52
2022/01/18 06:53:51;;;;;;;;;27.75;18.50;;;;;4.68;74.58;103145.97;5020857;28;45520;-57
2022/01/18 06:56:17;;;;;;;;;27.25;23.25;;;;;4.55;74.99;103125.16;5037951;28;45516;-51
2022/01/18 06:58:43;;;;;;;;;33.00;24.40;;;;;4.66;75.58;103146.13;5004225;28;45422;-49
2022/01/18 07:01:09;;;;;;;;;35.75;23.75;;;;;4.58;75.69;103129.47;5003507;28;45357;-53
2022/01/18 07:03:35;;;;;;;;;29.25;24.25;;;;;4.61;74.69;103138.28;4984152;28;45591;-49
2022/01/18 07:06:00;;;;;;;;;32.25;27.75;;;;;4.65;74.51;103141.66;5038105;28;45885;-51
2022/01/18 07:08:26;;;;;;;;;23.75;17.75;;;;;4.65;74.50;103144.38;5020157;28;45396;-53
2022/01/18 07:10:51;;;;;;;;;35.75;25.25;;;;;4.64;75.19;103142.63;5020311;28;45397;-55
2022/01/18 07:13:17;;;;;;;;;30.00;26.50;;;;;4.39;74.64;103102.78;5020453;28;45225;-54
2022/01/18 07:15:42;;;;;;;;;26.00;23.75;;;;;4.61;74.85;103135.56;5020173;28;46380;-53
2022/01/18 07:18:10;;;;;;;;;35.00;28.75;;;;;4.64;75.19;103139.91;5003453;28;45360;-55
2022/01/18 07:20:35;;;;;;;;;31.40;26.00;;;;;4.59;74.93;103133.94;5037810;28;45440;-52
2022/01/18 07:23:01;;;;;;;;;37.00;27.75;;;;;4.64;74.56;103134.47;5020234;28;45438;-53
2022/01/18 07:25:26;;;;;;;;;39.00;28.25;;;;;4.62;75.42;103139.16;5002974;28;46978;-50
2022/01/18 07:27:52;;;;;;;;;26.75;25.75;;;;;4.61;74.55;103138.28;5019482;28;45412;-51
2022/01/18 07:30:17;;;;;;;;;27.00;24.00;;;;;4.53;74.35;103115.38;5019627;28;45490;-53
2022/01/18 07:32:43;;;;;;;;;34.00;27.75;;;;;4.63;75.12;103130.00;5019955;28;45645;-55
2022/01/18 07:35:11;;;;;;;;;28.25;23.25;;;;;4.56;74.59;103115.13;5037210;28;45574;-55
2022/01/18 07:37:36;;;;;;;;;26.40;18.80;;;;;4.63;74.70;103129.16;5003452;28;45364;-53
2022/01/18 07:40:02;;;;;;;;;29.00;25.00;;;;;4.59;74.86;103118.47;5003082;28;45456;-54
2022/01/18 07:42:28;;;;;;;;;34.25;23.50;;;;;4.61;75.09;103110.22;5003061;28;45308;-52
2022/01/18 07:44:54;;;;;;;;;28.00;24.25;;;;;4.40;75.01;103077.31;5037132;28;45726;-53
2022/01/18 07:47:20;;;;;;;;;21.80;18.80;;;;;4.59;74.61;103104.88;5037029;28;45413;-55
2022/01/18 07:49:46;;;;;;;;;26.50;22.00;;;;;4.61;74.69;103107.50;5037547;28;45421;-51
2022/01/18 07:52:12;;;;;;;;;29.00;22.00;;;;;4.54;74.18;103100.78;5002986;28;45617;-50
2022/01/18 07:54:37;;;;;;;;;28.75;22.75;;;;;4.45;74.45;103095.03;5002651;28;46517;-58
2022/01/18 07:57:03;;;;;;;;;28.75;22.50;;;;;4.67;74.38;103120.66;5037259;28;45412;-56
2022/01/18 07:59:28;;;;;;;;;33.00;23.75;;;;;4.50;74.42;103094.69;5002871;28;45376;-57
2022/01/18 08:01:54;;;;;;;;;25.00;25.00;;;;;4.51;74.59;103090.09;5002851;28;45732;-53
2022/01/18 08:04:20;;;;;;;;;33.00;27.60;;;;;4.69;74.60;103115.09;5019331;28;46704;-52
2022/01/18 08:06:45;;;;;;;;;35.75;26.00;;;;;4.77;74.69;103119.94;5019218;28;45404;-54
2022/01/18 08:09:11;;;;;;;;;24.75;22.25;;;;;4.67;74.83;103088.00;5036603;28;45278;-50
2022/01/18 08:11:36;;;;;;;;;30.75;24.00;;;;;4.76;74.46;103097.31;5009349;28;45378;-56
2022/01/18 08:14:02;;;;;;;;;35.00;23.50;;;;;4.82;73.95;103110.47;5019300;28;46455;-53
2022/01/18 08:18:55;;;;;;;;;31.25;30.00;;;;;4.89;74.48;103097.25;5002506;28;45449;-51
2022/01/18 08:21:20;;;;;;;;;28.00;26.40;;;;;4.93;74.01;103106.06;5002709;28;45380;-51
2022/01/18 08:23:46;;;;;;;;;29.75;23.50;;;;;4.92;74.41;103099.75;4985081;28;47265;-51
2022/01/18 08:26:12;;;;;;;;;30.25;26.25;;;;;4.79;73.86;103064.44;5018726;28;45440;-55
2022/01/18 08:28:37;;;;;;;;;30.75;25.00;;;;;4.82;74.21;103066.94;5017498;28;45543;-53
2022/01/18 08:31:04;;;;;;;;;25.50;19.75;;;;;5.10;74.52;103105.66;5001351;28;45451;-53
2022/01/18 08:33:31;;;;;;;;;30.80;23.40;;;;;4.97;74.27;103081.19;5036329;28;46180;-52
2022/01/18 08:35:59;;;;;;;;;35.00;27.40;;;;;5.10;73.81;103093.88;5002735;28;45319;-53
2022/01/18 08:38:25;;;;;;;;;33.40;27.60;;;;;5.21;74.06;103110.25;5019208;28;45678;-48
2022/01/18 08:40:51;;;;;;;;;45.20;29.00;;;;;5.17;74.40;103105.19;5018143;28;45648;-55
2022/01/18 08:43:17;;;;;;;;;38.20;27.60;;;;;5.20;73.88;103097.63;5018269;28;48130;-55
2022/01/18 08:45:43;;;;;;;;;27.50;25.25;;;;;5.24;74.03;103092.81;5036440;28;45430;-52
2022/01/18 08:48:08;;;;;;;;;33.50;27.00;;;;;5.38;73.70;103110.78;5036216;28;45458;-54
2022/01/18 08:50:33;;;;;;;;;30.25;23.25;;;;;5.39;73.63;103107.13;5002209;28;45517;-56
2022/01/18 08:53:02;;;;;;;;;27.50;23.25;;;;;5.38;72.75;103106.22;5035977;28;45578;-52
2022/01/18 08:55:29;;;;;;;;;29.80;20.40;;;;;5.46;73.71;103104.75;4985586;28;45449;-51
2022/01/18 08:57:55;;;;;;;;;29.60;23.00;;;;;5.51;73.57;103108.00;5036054;28;45347;-54
2022/01/18 09:00:20;;;;;;;;;28.75;23.75;;;;;5.52;74.07;103086.09;4984999;28;45531;-53
2022/01/18 09:02:46;;;;;;;;;36.25;27.75;;;;;5.62;73.16;103101.72;4959514;28;46518;-51
2022/01/18 09:05:11;;;;;;;;;27.50;24.25;;;;;5.72;73.14;103097.28;5018721;28;45621;-55
2022/01/18 09:07:39;;;;;;;;;32.00;25.75;;;;;5.69;73.08;103094.78;4997286;28;45456;-49
2022/01/18 09:10:10;;;;;;;;;29.80;23.20;;;;;5.70;72.73;103083.75;5016866;28;45729;-56
2022/01/18 09:12:36;;;;;;;;;29.20;24.60;;;;;5.77;73.17;103095.03;4995329;28;46089;-53
2022/01/18 09:15:06;;;;;;;;;31.40;25.20;;;;;5.85;73.33;103110.78;5031098;28;45816;-50
2022/01/18 09:17:32;;;;;;;;;31.40;23.40;;;;;5.82;72.72;103097.41;5030232;28;45504;-55
2022/01/18 09:20:00;;;;;;;;;24.80;20.40;;;;;5.73;73.10;103074.47;5028782;28;45626;-55
2022/01/18 09:22:25;;;;;;;;;26.80;24.00;;;;;5.77;73.33;103078.69;5027786;28;46221;-55
2022/01/18 09:24:51;;;;;;;;;23.25;21.25;;;;;5.92;74.37;103087.50;5028726;28;45442;-56
2022/01/18 09:27:17;;;;;;;;;32.25;25.00;;;;;5.78;74.22;103071.38;5012216;28;45501;-52
2022/01/18 09:29:43;;;;;;;;;28.50;20.25;;;;;5.93;73.55;103088.38;5012293;28;45852;-53
2022/01/18 09:32:09;;;;;;;;;31.25;22.75;;;;;5.94;74.44;103084.66;5029524;28;46104;-51
2022/01/18 09:34:34;;;;;;;;;33.00;24.50;;;;;5.84;73.95;103066.28;5028000;28;45416;-49
2022/01/18 09:37:00;;;;;;;;;31.25;26.25;;;;;5.92;74.32;103081.19;5031159;28;45373;-53
2022/01/18 09:39:26;;;;;;;;;33.75;28.50;;;;;5.86;74.45;103057.16;5012844;28;45669;-54
2022/01/18 09:41:52;;;;;;;;;29.00;24.75;;;;;5.83;74.65;103061.84;5010385;28;45476;-53
2022/01/18 09:44:18;;;;;;;;;30.00;26.20;;;;;5.85;74.85;103059.00;5012109;28;45470;-48
2022/01/18 09:46:44;;;;;;;;;29.20;21.00;;;;;6.08;73.98;103091.72;5010595;28;45488;-52
2022/01/18 09:49:09;;;;;;;;;40.00;29.00;;;;;6.14;74.71;103099.41;5029976;28;45650;-55
2022/01/18 09:51:35;;;;;;;;;33.25;27.25;;;;;6.17;73.80;103090.13;5008590;28;46915;-53
2022/01/18 09:54:00;;;;;;;;;37.00;27.00;;;;;6.22;73.62;103090.63;5012984;28;45406;-56
2022/01/18 09:56:26;;;;;;;;;35.25;24.75;;;;;6.22;73.52;103091.50;5030367;28;45498;-54
2022/01/18 09:58:51;;;;;;;;;25.00;23.50;;;;;5.94;73.34;103043.75;5028759;28;45335;-55
2022/01/18 10:01:18;;;;;;;;;41.50;32.00;;;;;6.12;74.10;103073.28;4980348;28;47563;-50
2022/01/18 10:03:44;;;;;;;;;37.00;28.20;;;;;6.17;73.67;103076.47;5013315;28;45402;-55
2022/01/18 10:06:10;;;;;;;;;28.75;25.00;;;;;6.32;73.96;103094.34;5013184;28;45342;-54
2022/01/18 10:08:42;;;;;;;;;33.50;25.25;;;;;6.27;73.41;103076.59;5003762;28;45486;-51
2022/01/18 10:11:15;;;;;;;;;30.40;24.60;;;;;6.15;73.65;103057.53;4994681;28;45587;-54
2022/01/18 10:13:41;;;;;;;;;29.20;26.60;;;;;6.35;74.25;103088.63;4988600;28;45475;-53
2022/01/18 10:16:08;;;;;;;;;31.75;25.25;;;;;6.41;74.23;103098.16;5013297;28;45546;-55
2022/01/18 10:18:39;;;;;;;;;28.80;22.60;;;;;6.42;74.18;103079.94;5012848;28;45369;-52
2022/01/18 10:21:08;;;;;;;;;30.40;25.40;;;;;6.29;73.78;103061.84;5013684;28;47177;-55
2022/01/18 10:23:33;;;;;;;;;28.80;22.40;;;;;6.39;73.35;103061.09;5028197;28;45484;-54
2022/01/18 10:26:38;;;;;;;;;24.75;21.75;;;;;6.47;73.51;103081.28;5013235;28;45556;-51
2022/01/18 10:29:05;;;;;;;;;25.80;24.40;;;;;6.58;73.51;103083.13;4976776;28;45632;-55
2022/01/18 10:31:57;;;;;;;;;29.60;25.00;;;;;6.42;73.89;103044.47;4987339;28;47656;-56
2022/01/18 10:34:43;;;;;;;;;32.40;28.20;;;;;6.68;73.27;103066.84;5001946;28;45464;-55
2022/01/18 10:37:16;;;;;;;;;29.80;26.60;;;;;6.24;73.44;102982.25;5030341;28;45818;-53
2022/01/18 10:39:42;;;;;;;;;40.60;30.60;;;;;6.77;73.07;103062.47;4980960;28;45541;-53
2022/01/18 10:42:22;;;;;;;;;32.80;24.80;;;;;6.78;73.33;103045.13;5007696;28;47205;-53
2022/01/18 10:44:57;;;;;;;;;37.40;29.80;;;;;6.87;72.40;103049.78;5012643;28;45503;-51
2022/01/18 10:47:23;;;;;;;;;38.00;28.00;;;;;6.89;72.81;103038.72;4995386;28;45894;-54
2022/01/18 10:49:48;;;;;;;;;48.50;37.50;;;;;6.96;72.88;103041.78;5012223;28;45563;-54
2022/01/18 10:52:21;;;;;;;;;34.75;30.50;;;;;7.01;72.65;103034.06;4996400;28;47268;-52
2022/01/18 10:54:57;;;;;;;;;32.80;28.60;;;;;7.09;72.44;103027.97;4999936;28;45896;-54
2022/01/18 10:57:24;;;;;;;;;32.40;29.40;;;;;7.07;72.43;103011.69;4999927;28;45442;-55
2022/01/18 11:00:09;;;;;;;;;30.80;29.00;;;;;6.96;72.05;102982.59;5013111;28;45506;-57
2022/01/18 11:02:42;;;;;;;;;37.00;24.00;;;;;7.24;72.14;103014.81;5033179;28;45631;-53
2022/01/18 11:05:24;;;;;;;;;36.20;32.40;;;;;7.09;71.12;102981.53;4980807;28;45461;-54
2022/01/18 11:07:50;;;;;;;;;34.00;26.20;;;;;7.32;71.56;103009.56;5012866;28;45524;-55
2022/01/18 11:10:20;;;;;;;;;31.75;24.25;;;;;7.13;71.07;102963.88;4993844;28;47295;-52
2022/01/18 11:12:53;;;;;;;;;30.60;25.00;;;;;7.40;70.66;102996.09;5004842;28;46872;-52
2022/01/18 11:15:21;;;;;;;;;27.80;23.20;;;;;7.35;70.28;102978.38;4983521;28;45433;-54
2022/01/18 11:17:56;;;;;;;;;26.00;24.40;;;;;7.46;69.98;102987.34;5014829;28;45568;-52
2022/01/18 11:20:21;;;;;;;;;20.80;19.20;;;;;7.50;69.27;102987.06;5033096;28;45476;-58
2022/01/18 11:22:50;;;;;;;;;24.75;23.25;;;;;7.38;68.89;102954.38;5031359;28;47391;-56
2022/01/18 11:25:16;;;;;;;;;14.80;14.80;;;;;7.56;68.30;102972.84;4996136;28;45830;-53
2022/01/18 11:27:47;;;;;;;;;18.50;17.50;;;;;7.61;68.55;102965.13;4998333;28;45430;-57
2022/01/18 11:30:12;;;;;;;;;26.40;20.00;;;;;7.65;68.36;102962.97;4998793;28;45590;-51
2022/01/18 11:32:38;;;;;;;;;22.75;17.00;;;;;7.72;68.73;102962.28;5013604;28;46526;-52
2022/01/18 11:35:13;;;;;;;;;22.50;15.00;;;;;7.73;68.40;102941.28;4996932;28;45985;-57
2022/01/18 11:38:00;;;;;;;;;22.80;14.80;;;;;9.40;65.35;102945.84;5013986;28;45511;-55
2022/01/18 11:40:25;;;;;;;;;19.20;19.20;;;;;14.80;52.77;102927.97;5013984;28;45339;-52
2022/01/18 11:42:55;;;;;;;;;14.75;14.00;;;;;18.53;41.48;102919.97;5001635;28;45600;-54
2022/01/18 11:45:37;;;;;;;;;18.20;14.40;;;;;21.61;34.89;102912.03;4955765;28;45824;-58
2022/01/18 11:48:08;;;;;;;;;14.20;13.80;;;;;22.92;31.61;102879.94;4985383;28;45840;-53
2022/01/18 11:51:01;;;;;;;;;12.20;10.80;;;;;23.32;30.70;102904.41;5005504;28;46379;-51
2022/01/18 11:56:39;;;;;;;;;16.60;15.20;;;;;15.96;41.23;102906.41;5017425;28;45923;-55
2022/01/18 11:59:26;;;;;;;;;16.20;13.40;;;;;14.24;45.14;102904.22;5010817;28;45513;-58
2022/01/18 12:02:03;;;;;;;;;12.80;11.00;;;;;13.09;47.01;102873.38;5013954;28;45489;-55
2022/01/18 12:04:40;;;;;;;;;12.20;8.60;;;;;12.29;50.08;102906.16;4980744;28;46045;-55
2022/01/18 12:07:08;;;;;;;;;11.00;10.00;;;;;11.57;51.52;102896.50;5015048;28;45579;-54
2022/01/18 12:09:47;;;;;;;;;8.60;8.00;;;;;11.11;52.78;102895.75;4998667;28;45557;-55
2022/01/18 12:12:48;;;;;;;;;13.60;8.80;;;;;10.74;54.21;102896.03;5014075;28;45885;-53
2022/01/18 12:15:22;;;;;;;;;12.00;11.80;;;;;10.52;56.36;102888.13;4996720;28;48087;-56
2022/01/18 12:17:53;;;;;;;;;13.00;9.00;;;;;10.28;55.97;102873.16;5027621;28;45520;-54
2022/01/18 12:20:34;;;;;;;;;8.20;7.00;;;;;10.17;57.62;102887.13;5032268;28;45487;-55
2022/01/18 12:23:06;;;;;;;;;12.60;10.20;;;;;9.80;57.28;102847.81;5033017;28;46117;-61
2022/01/18 12:25:37;;;;;;;;;7.60;6.80;;;;;9.51;57.41;102839.78;5032383;28;45766;-59
2022/01/18 12:34:30;;;;;;;;;8.60;8.20;;;;;9.43;57.69;102857.88;5031837;28;45854;-60
2022/01/18 12:37:10;;;;;;;;;17.80;10.60;;;;;9.39;57.96;102856.44;5030988;28;48456;-57
2022/01/18 12:45:07;;;;;;;;;12.20;8.00;;;;;8.82;60.52;102773.34;5028167;28;45999;-50